Kirby, Wyoming
Current Conditions -  °F | °C
As of 9:53 PM on Monday 20 Oct 2014 (Local Time) from KWRL Reporting Station
Clear Clear  
Wind Chill: 54°   Ceiling: Unl
Heat Index: 54°   Visibility: 10mi
Dew Point: 28°   Wind: 13mph
Humidity: 37%   Direction: 170°S
Pressure: 29.87"   Gusts: NA
Location:  43.8°N, 108.18°W
Report Text: KWRL 210353Z AUTO 17011KT 10SM CLR 12/M02 A2987 RMK AO2 SLP105 T01221022
Loading
Personal Weather Stations






























Interactive Weather Map
Tropical Storm Tracking
New forecast layout! Learn more

10-Day Weather Forecast

Advertisements
Track Severe Weather on mobile